sensor_id;sensor_type;location;lat;lon;timestamp;P1;durP1;ratioP1;P2;durP2;ratioP2
10246;SDS011;5168;47.854;7.944;2023-11-19T00:00:45;4.23;;;2.07;;
10246;SDS011;5168;47.854;7.944;2023-11-19T00:03:10;2.10;;;1.90;;
10246;SDS011;5168;47.854;7.944;2023-11-19T00:05:38;2.03;;;1.93;;
10246;SDS011;5168;47.854;7.944;2023-11-19T00:08:04;1.90;;;1.80;;
10246;SDS011;5168;47.854;7.944;2023-11-19T00:10:31;1.97;;;1.83;;
10246;SDS011;5168;47.854;7.944;2023-11-19T00:12:56;2.00;;;1.90;;
10246;SDS011;5168;47.854;7.944;2023-11-19T00:15:22;3.20;;;1.90;;
10246;SDS011;5168;47.854;7.944;2023-11-19T00:17:49;3.00;;;2.10;;
10246;SDS011;5168;47.854;7.944;2023-11-19T00:20:16;2.60;;;1.97;;
10246;SDS011;5168;47.854;7.944;2023-11-19T00:22:42;2.77;;;2.17;;
10246;SDS011;5168;47.854;7.944;2023-11-19T00:25:08;2.30;;;2.10;;
10246;SDS011;5168;47.854;7.944;2023-11-19T00:27:35;3.03;;;1.87;;
10246;SDS011;5168;47.854;7.944;2023-11-19T00:30:01;3.87;;;2.10;;
10246;SDS011;5168;47.854;7.944;2023-11-19T00:32:30;3.03;;;2.00;;
10246;SDS011;5168;47.854;7.944;2023-11-19T00:34:56;2.33;;;2.13;;
10246;SDS011;5168;47.854;7.944;2023-11-19T00:37:21;2.00;;;1.90;;
10246;SDS011;5168;47.854;7.944;2023-11-19T00:39:47;2.60;;;1.90;;
10246;SDS011;5168;47.854;7.944;2023-11-19T00:42:12;5.77;;;2.13;;
10246;SDS011;5168;47.854;7.944;2023-11-19T00:44:38;4.20;;;1.67;;
10246;SDS011;5168;47.854;7.944;2023-11-19T00:47:06;1.90;;;1.80;;
10246;SDS011;5168;47.854;7.944;2023-11-19T00:49:31;1.90;;;1.80;;
10246;SDS011;5168;47.854;7.944;2023-11-19T00:52:00;1.93;;;1.83;;
10246;SDS011;5168;47.854;7.944;2023-11-19T00:54:27;1.80;;;1.70;;
10246;SDS011;5168;47.854;7.944;2023-11-19T00:56:53;3.93;;;1.90;;
10246;SDS011;5168;47.854;7.944;2023-11-19T00:59:19;1.63;;;1.53;;
10246;SDS011;5168;47.854;7.944;2023-11-19T01:01:45;1.50;;;1.40;;
10246;SDS011;5168;47.854;7.944;2023-11-19T01:04:13;2.33;;;1.80;;
10246;SDS011;5168;47.854;7.944;2023-11-19T01:06:39;1.90;;;1.80;;
10246;SDS011;5168;47.854;7.944;2023-11-19T01:09:07;1.80;;;1.70;;
10246;SDS011;5168;47.854;7.944;2023-11-19T01:11:33;2.90;;;1.90;;
10246;SDS011;5168;47.854;7.944;2023-11-19T01:13:59;1.57;;;1.47;;
10246;SDS011;5168;47.854;7.944;2023-11-19T01:16:25;1.90;;;1.80;;
10246;SDS011;5168;47.854;7.944;2023-11-19T01:18:51;1.60;;;1.50;;
10246;SDS011;5168;47.854;7.944;2023-11-19T01:21:17;1.60;;;1.50;;
10246;SDS011;5168;47.854;7.944;2023-11-19T01:23:43;1.60;;;1.50;;
10246;SDS011;5168;47.854;7.944;2023-11-19T01:26:09;1.77;;;1.50;;
10246;SDS011;5168;47.854;7.944;2023-11-19T01:28:39;1.70;;;1.60;;
10246;SDS011;5168;47.854;7.944;2023-11-19T01:31:09;1.60;;;1.50;;
10246;SDS011;5168;47.854;7.944;2023-11-19T01:33:36;1.80;;;1.70;;
10246;SDS011;5168;47.854;7.944;2023-11-19T01:36:02;1.60;;;1.50;;
10246;SDS011;5168;47.854;7.944;2023-11-19T01:38:29;1.67;;;1.57;;
10246;SDS011;5168;47.854;7.944;2023-11-19T01:40:56;1.67;;;1.50;;
10246;SDS011;5168;47.854;7.944;2023-11-19T01:45:58;2.17;;;1.80;;
10246;SDS011;5168;47.854;7.944;2023-11-19T01:48:23;2.00;;;1.90;;
10246;SDS011;5168;47.854;7.944;2023-11-19T01:50:49;1.77;;;1.67;;
10246;SDS011;5168;47.854;7.944;2023-11-19T01:53:17;1.70;;;1.60;;
10246;SDS011;5168;47.854;7.944;2023-11-19T01:55:43;1.73;;;1.60;;
10246;SDS011;5168;47.854;7.944;2023-11-19T01:58:08;3.57;;;1.70;;
10246;SDS011;5168;47.854;7.944;2023-11-19T02:00:34;3.07;;;1.70;;
10246;SDS011;5168;47.854;7.944;2023-11-19T02:03:00;1.83;;;1.73;;
10246;SDS011;5168;47.854;7.944;2023-11-19T02:05:26;1.60;;;1.50;;
10246;SDS011;5168;47.854;7.944;2023-11-19T02:07:52;1.90;;;1.80;;
10246;SDS011;5168;47.854;7.944;2023-11-19T02:10:18;1.63;;;1.53;;
10246;SDS011;5168;47.854;7.944;2023-11-19T02:12:44;1.50;;;1.40;;
10246;SDS011;5168;47.854;7.944;2023-11-19T02:15:10;1.50;;;1.40;;
10246;SDS011;5168;47.854;7.944;2023-11-19T02:17:36;1.60;;;1.50;;
10246;SDS011;5168;47.854;7.944;2023-11-19T02:22:39;1.70;;;1.60;;
10246;SDS011;5168;47.854;7.944;2023-11-19T02:25:10;1.67;;;1.57;;
10246;SDS011;5168;47.854;7.944;2023-11-19T02:27:54;1.40;;;1.30;;
10246;SDS011;5168;47.854;7.944;2023-11-19T02:30:24;1.57;;;1.40;;
10246;SDS011;5168;47.854;7.944;2023-11-19T02:32:54;1.50;;;1.40;;
10246;SDS011;5168;47.854;7.944;2023-11-19T02:35:22;1.60;;;1.50;;
10246;SDS011;5168;47.854;7.944;2023-11-19T02:37:48;1.53;;;1.43;;
10246;SDS011;5168;47.854;7.944;2023-11-19T02:40:14;1.40;;;1.30;;
10246;SDS011;5168;47.854;7.944;2023-11-19T02:42:39;1.40;;;1.30;;
10246;SDS011;5168;47.854;7.944;2023-11-19T02:45:05;1.50;;;1.40;;
10246;SDS011;5168;47.854;7.944;2023-11-19T02:47:32;1.40;;;1.30;;
10246;SDS011;5168;47.854;7.944;2023-11-19T02:49:58;1.60;;;1.50;;
10246;SDS011;5168;47.854;7.944;2023-11-19T02:52:24;1.63;;;1.27;;
10246;SDS011;5168;47.854;7.944;2023-11-19T02:54:50;1.40;;;1.30;;
10246;SDS011;5168;47.854;7.944;2023-11-19T02:57:16;1.30;;;1.20;;
10246;SDS011;5168;47.854;7.944;2023-11-19T02:59:44;1.43;;;1.33;;
10246;SDS011;5168;47.854;7.944;2023-11-19T03:02:10;1.27;;;1.20;;
10246;SDS011;5168;47.854;7.944;2023-11-19T03:04:37;1.40;;;1.30;;
10246;SDS011;5168;47.854;7.944;2023-11-19T03:07:07;1.40;;;1.30;;
10246;SDS011;5168;47.854;7.944;2023-11-19T03:09:33;1.50;;;1.40;;
10246;SDS011;5168;47.854;7.944;2023-11-19T03:12:00;1.60;;;1.50;;
10246;SDS011;5168;47.854;7.944;2023-11-19T03:14:26;1.47;;;1.37;;
10246;SDS011;5168;47.854;7.944;2023-11-19T03:16:51;1.40;;;1.30;;
10246;SDS011;5168;47.854;7.944;2023-11-19T03:19:17;1.40;;;1.30;;
10246;SDS011;5168;47.854;7.944;2023-11-19T03:21:43;1.20;;;1.20;;
10246;SDS011;5168;47.854;7.944;2023-11-19T03:24:09;1.20;;;1.20;;
10246;SDS011;5168;47.854;7.944;2023-11-19T03:26:37;1.40;;;1.30;;
10246;SDS011;5168;47.854;7.944;2023-11-19T03:29:03;1.43;;;1.33;;
10246;SDS011;5168;47.854;7.944;2023-11-19T03:31:29;1.53;;;1.43;;
10246;SDS011;5168;47.854;7.944;2023-11-19T03:33:54;1.50;;;1.40;;
10246;SDS011;5168;47.854;7.944;2023-11-19T03:36:20;1.50;;;1.40;;
10246;SDS011;5168;47.854;7.944;2023-11-19T03:38:45;1.40;;;1.30;;
10246;SDS011;5168;47.854;7.944;2023-11-19T03:41:12;1.30;;;1.20;;
10246;SDS011;5168;47.854;7.944;2023-11-19T03:43:38;1.40;;;1.30;;
10246;SDS011;5168;47.854;7.944;2023-11-19T03:46:04;1.40;;;1.30;;
10246;SDS011;5168;47.854;7.944;2023-11-19T03:48:40;1.23;;;1.13;;
10246;SDS011;5168;47.854;7.944;2023-11-19T03:51:06;1.40;;;1.30;;
10246;SDS011;5168;47.854;7.944;2023-11-19T03:53:32;1.50;;;1.40;;
10246;SDS011;5168;47.854;7.944;2023-11-19T03:55:58;1.37;;;1.27;;
10246;SDS011;5168;47.854;7.944;2023-11-19T03:58:24;1.40;;;1.30;;
10246;SDS011;5168;47.854;7.944;2023-11-19T04:00:49;3.13;;;1.40;;
10246;SDS011;5168;47.854;7.944;2023-11-19T04:03:15;1.87;;;1.37;;
10246;SDS011;5168;47.854;7.944;2023-11-19T04:05:40;1.40;;;1.30;;
10246;SDS011;5168;47.854;7.944;2023-11-19T04:08:06;1.50;;;1.40;;
10246;SDS011;5168;47.854;7.944;2023-11-19T04:10:31;1.40;;;1.30;;
10246;SDS011;5168;47.854;7.944;2023-11-19T04:12:57;1.40;;;1.30;;
10246;SDS011;5168;47.854;7.944;2023-11-19T04:15:22;4.00;;;1.30;;
10246;SDS011;5168;47.854;7.944;2023-11-19T04:17:49;1.40;;;1.30;;
10246;SDS011;5168;47.854;7.944;2023-11-19T04:20:15;1.47;;;1.37;;
10246;SDS011;5168;47.854;7.944;2023-11-19T04:22:40;1.40;;;1.30;;
10246;SDS011;5168;47.854;7.944;2023-11-19T04:25:06;1.47;;;1.37;;
10246;SDS011;5168;47.854;7.944;2023-11-19T04:27:32;1.50;;;1.40;;
10246;SDS011;5168;47.854;7.944;2023-11-19T04:29:57;1.30;;;1.20;;
10246;SDS011;5168;47.854;7.944;2023-11-19T04:32:25;1.50;;;1.40;;
10246;SDS011;5168;47.854;7.944;2023-11-19T04:34:51;1.10;;;1.10;;
10246;SDS011;5168;47.854;7.944;2023-11-19T04:37:17;1.53;;;1.43;;
10246;SDS011;5168;47.854;7.944;2023-11-19T04:39:44;1.60;;;1.50;;
10246;SDS011;5168;47.854;7.944;2023-11-19T04:42:11;1.40;;;1.30;;
10246;SDS011;5168;47.854;7.944;2023-11-19T04:44:37;1.40;;;1.30;;
10246;SDS011;5168;47.854;7.944;2023-11-19T04:47:03;1.50;;;1.40;;
10246;SDS011;5168;47.854;7.944;2023-11-19T04:49:29;1.20;;;1.20;;
10246;SDS011;5168;47.854;7.944;2023-11-19T04:51:55;1.40;;;1.30;;
10246;SDS011;5168;47.854;7.944;2023-11-19T04:54:21;2.43;;;1.67;;
10246;SDS011;5168;47.854;7.944;2023-11-19T04:56:47;1.70;;;1.60;;
10246;SDS011;5168;47.854;7.944;2023-11-19T04:59:13;2.40;;;2.20;;
10246;SDS011;5168;47.854;7.944;2023-11-19T05:01:39;2.00;;;1.83;;
10246;SDS011;5168;47.854;7.944;2023-11-19T05:04:05;1.60;;;1.50;;
10246;SDS011;5168;47.854;7.944;2023-11-19T05:06:31;3.27;;;1.50;;
10246;SDS011;5168;47.854;7.944;2023-11-19T05:09:00;1.60;;;1.50;;
10246;SDS011;5168;47.854;7.944;2023-11-19T05:11:26;9.80;;;1.70;;
10246;SDS011;5168;47.854;7.944;2023-11-19T05:13:53;6.30;;;1.77;;
10246;SDS011;5168;47.854;7.944;2023-11-19T05:16:19;3.50;;;1.50;;
10246;SDS011;5168;47.854;7.944;2023-11-19T05:18:45;3.70;;;1.50;;
10246;SDS011;5168;47.854;7.944;2023-11-19T05:21:11;41.80;;;2.93;;
10246;SDS011;5168;47.854;7.944;2023-11-19T05:23:37;7.40;;;3.37;;
10246;SDS011;5168;47.854;7.944;2023-11-19T05:26:04;4.37;;;1.97;;
10246;SDS011;5168;47.854;7.944;2023-11-19T05:28:30;1.90;;;1.80;;
10246;SDS011;5168;47.854;7.944;2023-11-19T05:30:55;10.80;;;1.60;;
10246;SDS011;5168;47.854;7.944;2023-11-19T05:33:21;39.83;;;2.20;;
10246;SDS011;5168;47.854;7.944;2023-11-19T05:35:47;23.30;;;1.70;;
10246;SDS011;5168;47.854;7.944;2023-11-19T05:38:13;43.37;;;2.80;;
10246;SDS011;5168;47.854;7.944;2023-11-19T05:40:39;41.63;;;2.60;;
10246;SDS011;5168;47.854;7.944;2023-11-19T05:43:05;4.90;;;1.37;;
10246;SDS011;5168;47.854;7.944;2023-11-19T05:45:31;15.47;;;1.90;;
10246;SDS011;5168;47.854;7.944;2023-11-19T05:47:57;14.50;;;1.80;;
10246;SDS011;5168;47.854;7.944;2023-11-19T05:50:23;1.60;;;1.50;;
10246;SDS011;5168;47.854;7.944;2023-11-19T05:52:49;66.03;;;3.13;;
10246;SDS011;5168;47.854;7.944;2023-11-19T05:55:15;29.10;;;2.33;;
10246;SDS011;5168;47.854;7.944;2023-11-19T05:57:41;51.60;;;3.17;;
10246;SDS011;5168;47.854;7.944;2023-11-19T06:00:07;25.37;;;2.00;;
10246;SDS011;5168;47.854;7.944;2023-11-19T06:02:35;4.33;;;1.60;;
10246;SDS011;5168;47.854;7.944;2023-11-19T06:05:03;14.00;;;2.13;;
10246;SDS011;5168;47.854;7.944;2023-11-19T06:07:30;26.60;;;2.43;;
10246;SDS011;5168;47.854;7.944;2023-11-19T06:09:56;62.50;;;3.43;;
10246;SDS011;5168;47.854;7.944;2023-11-19T06:12:22;36.63;;;2.57;;
10246;SDS011;5168;47.854;7.944;2023-11-19T06:14:48;24.37;;;2.13;;
10246;SDS011;5168;47.854;7.944;2023-11-19T06:17:13;38.87;;;2.43;;
10246;SDS011;5168;47.854;7.944;2023-11-19T06:19:39;8.57;;;1.70;;
10246;SDS011;5168;47.854;7.944;2023-11-19T06:22:04;30.60;;;2.27;;
10246;SDS011;5168;47.854;7.944;2023-11-19T06:24:30;31.70;;;2.50;;
10246;SDS011;5168;47.854;7.944;2023-11-19T06:26:56;71.90;;;27.17;;
10246;SDS011;5168;47.854;7.944;2023-11-19T06:29:23;40.57;;;4.30;;
10246;SDS011;5168;47.854;7.944;2023-11-19T06:31:49;40.57;;;3.00;;
10246;SDS011;5168;47.854;7.944;2023-11-19T06:34:15;45.60;;;2.70;;
10246;SDS011;5168;47.854;7.944;2023-11-19T06:36:41;40.03;;;2.53;;
10246;SDS011;5168;47.854;7.944;2023-11-19T06:39:10;12.97;;;1.67;;
10246;SDS011;5168;47.854;7.944;2023-11-19T06:41:36;11.40;;;1.60;;
10246;SDS011;5168;47.854;7.944;2023-11-19T06:44:03;11.87;;;1.90;;
10246;SDS011;5168;47.854;7.944;2023-11-19T06:46:29;1.60;;;1.50;;
10246;SDS011;5168;47.854;7.944;2023-11-19T06:48:56;6.77;;;1.53;;
10246;SDS011;5168;47.854;7.944;2023-11-19T06:51:22;11.00;;;1.67;;
10246;SDS011;5168;47.854;7.944;2023-11-19T06:53:49;2.87;;;1.50;;
10246;SDS011;5168;47.854;7.944;2023-11-19T06:56:21;11.10;;;1.80;;
10246;SDS011;5168;47.854;7.944;2023-11-19T06:58:48;3.23;;;1.50;;
10246;SDS011;5168;47.854;7.944;2023-11-19T07:01:14;1.47;;;1.37;;
10246;SDS011;5168;47.854;7.944;2023-11-19T07:03:40;1.40;;;1.30;;
10246;SDS011;5168;47.854;7.944;2023-11-19T07:06:06;8.77;;;1.50;;
10246;SDS011;5168;47.854;7.944;2023-11-19T07:08:33;1.60;;;1.50;;
10246;SDS011;5168;47.854;7.944;2023-11-19T07:10:59;5.70;;;1.50;;
10246;SDS011;5168;47.854;7.944;2023-11-19T07:13:24;1.53;;;1.43;;
10246;SDS011;5168;47.854;7.944;2023-11-19T07:15:52;2.17;;;2.03;;
10246;SDS011;5168;47.854;7.944;2023-11-19T07:18:18;1.97;;;1.73;;
10246;SDS011;5168;47.854;7.944;2023-11-19T07:20:46;3.63;;;1.40;;
10246;SDS011;5168;47.854;7.944;2023-11-19T07:23:12;2.47;;;1.70;;
10246;SDS011;5168;47.854;7.944;2023-11-19T07:25:39;5.43;;;1.53;;
10246;SDS011;5168;47.854;7.944;2023-11-19T07:28:05;3.53;;;1.60;;
10246;SDS011;5168;47.854;7.944;2023-11-19T07:30:31;10.40;;;1.70;;
10246;SDS011;5168;47.854;7.944;2023-11-19T07:32:57;1.60;;;1.50;;
10246;SDS011;5168;47.854;7.944;2023-11-19T07:35:23;5.00;;;1.60;;
10246;SDS011;5168;47.854;7.944;2023-11-19T07:37:48;1.83;;;1.30;;
10246;SDS011;5168;47.854;7.944;2023-11-19T07:40:15;1.60;;;1.50;;
10246;SDS011;5168;47.854;7.944;2023-11-19T07:42:40;2.60;;;1.40;;
10246;SDS011;5168;47.854;7.944;2023-11-19T07:45:06;1.60;;;1.50;;
10246;SDS011;5168;47.854;7.944;2023-11-19T07:47:32;4.23;;;1.63;;
10246;SDS011;5168;47.854;7.944;2023-11-19T07:49:58;1.60;;;1.50;;
10246;SDS011;5168;47.854;7.944;2023-11-19T07:52:24;4.77;;;1.50;;
10246;SDS011;5168;47.854;7.944;2023-11-19T07:54:50;1.60;;;1.50;;
10246;SDS011;5168;47.854;7.944;2023-11-19T07:57:15;13.33;;;1.80;;
10246;SDS011;5168;47.854;7.944;2023-11-19T07:59:41;1.50;;;1.40;;
10246;SDS011;5168;47.854;7.944;2023-11-19T08:02:06;1.60;;;1.50;;
10246;SDS011;5168;47.854;7.944;2023-11-19T08:04:32;1.90;;;1.80;;
10246;SDS011;5168;47.854;7.944;2023-11-19T08:06:58;1.87;;;1.60;;
10246;SDS011;5168;47.854;7.944;2023-11-19T08:09:24;1.60;;;1.50;;
10246;SDS011;5168;47.854;7.944;2023-11-19T08:11:50;6.50;;;1.60;;
10246;SDS011;5168;47.854;7.944;2023-11-19T08:14:16;1.43;;;1.33;;
10246;SDS011;5168;47.854;7.944;2023-11-19T08:16:41;1.70;;;1.60;;
10246;SDS011;5168;47.854;7.944;2023-11-19T08:19:07;1.70;;;1.60;;
10246;SDS011;5168;47.854;7.944;2023-11-19T08:21:33;1.60;;;1.50;;
10246;SDS011;5168;47.854;7.944;2023-11-19T08:23:59;2.50;;;1.60;;
10246;SDS011;5168;47.854;7.944;2023-11-19T08:26:25;1.40;;;1.30;;
10246;SDS011;5168;47.854;7.944;2023-11-19T08:28:51;1.80;;;1.40;;
10246;SDS011;5168;47.854;7.944;2023-11-19T08:31:17;1.50;;;1.40;;
10246;SDS011;5168;47.854;7.944;2023-11-19T08:33:43;1.50;;;1.40;;
10246;SDS011;5168;47.854;7.944;2023-11-19T08:36:14;3.00;;;1.53;;
10246;SDS011;5168;47.854;7.944;2023-11-19T08:38:41;19.03;;;1.90;;
10246;SDS011;5168;47.854;7.944;2023-11-19T08:41:07;2.80;;;1.37;;
10246;SDS011;5168;47.854;7.944;2023-11-19T08:43:32;1.80;;;1.70;;
10246;SDS011;5168;47.854;7.944;2023-11-19T08:45:58;1.73;;;1.63;;
10246;SDS011;5168;47.854;7.944;2023-11-19T08:48:24;1.80;;;1.70;;
10246;SDS011;5168;47.854;7.944;2023-11-19T08:50:50;3.97;;;1.90;;
10246;SDS011;5168;47.854;7.944;2023-11-19T08:53:16;2.23;;;2.10;;
10246;SDS011;5168;47.854;7.944;2023-11-19T08:55:42;1.70;;;1.60;;
10246;SDS011;5168;47.854;7.944;2023-11-19T08:58:08;3.07;;;1.60;;
10246;SDS011;5168;47.854;7.944;2023-11-19T09:00:33;1.57;;;1.47;;
10246;SDS011;5168;47.854;7.944;2023-11-19T09:02:59;1.60;;;1.50;;
10246;SDS011;5168;47.854;7.944;2023-11-19T09:05:25;1.70;;;1.60;;
10246;SDS011;5168;47.854;7.944;2023-11-19T09:07:51;1.70;;;1.60;;
10246;SDS011;5168;47.854;7.944;2023-11-19T09:10:17;1.50;;;1.40;;
10246;SDS011;5168;47.854;7.944;2023-11-19T09:12:43;1.50;;;1.40;;
10246;SDS011;5168;47.854;7.944;2023-11-19T09:15:09;1.60;;;1.50;;
10246;SDS011;5168;47.854;7.944;2023-11-19T09:17:38;1.60;;;1.50;;
10246;SDS011;5168;47.854;7.944;2023-11-19T09:20:04;1.70;;;1.60;;
10246;SDS011;5168;47.854;7.944;2023-11-19T09:22:30;1.70;;;1.60;;
10246;SDS011;5168;47.854;7.944;2023-11-19T09:24:56;1.60;;;1.40;;
10246;SDS011;5168;47.854;7.944;2023-11-19T09:27:24;1.60;;;1.50;;
10246;SDS011;5168;47.854;7.944;2023-11-19T09:29:50;1.43;;;1.33;;
10246;SDS011;5168;47.854;7.944;2023-11-19T09:32:22;1.60;;;1.50;;
10246;SDS011;5168;47.854;7.944;2023-11-19T09:34:48;1.40;;;1.30;;
10246;SDS011;5168;47.854;7.944;2023-11-19T09:37:14;1.40;;;1.30;;
10246;SDS011;5168;47.854;7.944;2023-11-19T09:39:40;5.20;;;1.40;;
10246;SDS011;5168;47.854;7.944;2023-11-19T09:42:08;1.50;;;1.40;;
10246;SDS011;5168;47.854;7.944;2023-11-19T09:44:34;1.57;;;1.47;;
10246;SDS011;5168;47.854;7.944;2023-11-19T09:47:02;2.67;;;1.70;;
10246;SDS011;5168;47.854;7.944;2023-11-19T09:49:28;1.50;;;1.40;;
10246;SDS011;5168;47.854;7.944;2023-11-19T09:51:54;1.60;;;1.50;;
10246;SDS011;5168;47.854;7.944;2023-11-19T09:54:20;1.60;;;1.50;;
10246;SDS011;5168;47.854;7.944;2023-11-19T09:56:45;1.50;;;1.40;;
10246;SDS011;5168;47.854;7.944;2023-11-19T09:59:11;1.47;;;1.37;;
10246;SDS011;5168;47.854;7.944;2023-11-19T10:01:38;1.53;;;1.43;;
10246;SDS011;5168;47.854;7.944;2023-11-19T10:04:04;1.60;;;1.50;;
10246;SDS011;5168;47.854;7.944;2023-11-19T10:06:32;1.57;;;1.47;;
10246;SDS011;5168;47.854;7.944;2023-11-19T10:08:58;2.70;;;1.63;;
10246;SDS011;5168;47.854;7.944;2023-11-19T10:11:24;1.70;;;1.60;;
10246;SDS011;5168;47.854;7.944;2023-11-19T10:13:51;1.53;;;1.43;;
10246;SDS011;5168;47.854;7.944;2023-11-19T10:16:18;1.63;;;1.53;;
10246;SDS011;5168;47.854;7.944;2023-11-19T10:18:45;1.63;;;1.53;;
10246;SDS011;5168;47.854;7.944;2023-11-19T10:21:14;1.73;;;1.63;;
10246;SDS011;5168;47.854;7.944;2023-11-19T10:23:48;1.53;;;1.43;;
10246;SDS011;5168;47.854;7.944;2023-11-19T10:26:18;1.70;;;1.60;;
10246;SDS011;5168;47.854;7.944;2023-11-19T10:28:47;1.70;;;1.60;;
10246;SDS011;5168;47.854;7.944;2023-11-19T10:31:14;1.80;;;1.67;;
10246;SDS011;5168;47.854;7.944;2023-11-19T10:33:43;1.63;;;1.53;;
10246;SDS011;5168;47.854;7.944;2023-11-19T10:36:10;2.03;;;1.60;;
10246;SDS011;5168;47.854;7.944;2023-11-19T10:38:39;2.23;;;1.70;;
10246;SDS011;5168;47.854;7.944;2023-11-19T10:41:06;1.50;;;1.40;;
10246;SDS011;5168;47.854;7.944;2023-11-19T10:43:31;3.60;;;1.60;;
10246;SDS011;5168;47.854;7.944;2023-11-19T10:46:13;1.97;;;1.70;;
10246;SDS011;5168;47.854;7.944;2023-11-19T10:48:39;1.50;;;1.40;;
10246;SDS011;5168;47.854;7.944;2023-11-19T10:51:05;2.60;;;1.53;;
10246;SDS011;5168;47.854;7.944;2023-11-19T10:53:36;1.70;;;1.60;;
10246;SDS011;5168;47.854;7.944;2023-11-19T10:56:04;1.70;;;1.60;;
10246;SDS011;5168;47.854;7.944;2023-11-19T10:58:33;1.70;;;1.53;;
10246;SDS011;5168;47.854;7.944;2023-11-19T11:01:03;1.60;;;1.50;;
10246;SDS011;5168;47.854;7.944;2023-11-19T11:03:39;1.97;;;1.43;;
10246;SDS011;5168;47.854;7.944;2023-11-19T11:06:05;2.23;;;1.50;;
10246;SDS011;5168;47.854;7.944;2023-11-19T11:08:31;1.53;;;1.43;;
10246;SDS011;5168;47.854;7.944;2023-11-19T11:11:01;1.60;;;1.50;;
10246;SDS011;5168;47.854;7.944;2023-11-19T11:13:29;1.73;;;1.63;;
10246;SDS011;5168;47.854;7.944;2023-11-19T11:15:56;1.87;;;1.60;;
10246;SDS011;5168;47.854;7.944;2023-11-19T11:18:26;8.13;;;5.27;;
10246;SDS011;5168;47.854;7.944;2023-11-19T11:21:14;2.70;;;2.30;;
10246;SDS011;5168;47.854;7.944;2023-11-19T11:26:35;2.80;;;2.47;;
10246;SDS011;5168;47.854;7.944;2023-11-19T11:29:34;3.50;;;2.90;;
10246;SDS011;5168;47.854;7.944;2023-11-19T11:35:17;2.23;;;1.67;;
10246;SDS011;5168;47.854;7.944;2023-11-19T11:37:45;8.40;;;5.07;;
10246;SDS011;5168;47.854;7.944;2023-11-19T11:40:15;2.80;;;2.50;;
10246;SDS011;5168;47.854;7.944;2023-11-19T11:42:43;1.70;;;1.60;;
10246;SDS011;5168;47.854;7.944;2023-11-19T11:45:12;1.80;;;1.70;;
10246;SDS011;5168;47.854;7.944;2023-11-19T11:50:07;2.10;;;1.90;;
10246;SDS011;5168;47.854;7.944;2023-11-19T11:53:12;2.67;;;1.60;;
10246;SDS011;5168;47.854;7.944;2023-11-19T11:55:26;1.70;;;1.60;;
10246;SDS011;5168;47.854;7.944;2023-11-19T11:57:52;2.80;;;1.67;;
10246;SDS011;5168;47.854;7.944;2023-11-19T12:00:40;4.30;;;1.60;;
10246;SDS011;5168;47.854;7.944;2023-11-19T12:03:06;2.13;;;1.57;;
10246;SDS011;5168;47.854;7.944;2023-11-19T12:05:32;1.70;;;1.60;;
10246;SDS011;5168;47.854;7.944;2023-11-19T12:10:26;1.50;;;1.40;;
10246;SDS011;5168;47.854;7.944;2023-11-19T12:12:59;1.47;;;1.30;;
10246;SDS011;5168;47.854;7.944;2023-11-19T12:15:25;1.40;;;1.30;;
10246;SDS011;5168;47.854;7.944;2023-11-19T12:17:52;1.40;;;1.30;;
10246;SDS011;5168;47.854;7.944;2023-11-19T12:20:22;1.37;;;1.27;;
10246;SDS011;5168;47.854;7.944;2023-11-19T12:22:51;1.50;;;1.40;;
10246;SDS011;5168;47.854;7.944;2023-11-19T12:25:18;2.57;;;1.30;;
10246;SDS011;5168;47.854;7.944;2023-11-19T12:27:49;1.60;;;1.50;;
10246;SDS011;5168;47.854;7.944;2023-11-19T12:30:25;1.70;;;1.60;;
10246;SDS011;5168;47.854;7.944;2023-11-19T12:32:51;1.47;;;1.37;;
10246;SDS011;5168;47.854;7.944;2023-11-19T12:35:20;1.60;;;1.50;;
10246;SDS011;5168;47.854;7.944;2023-11-19T12:37:46;1.47;;;1.37;;
10246;SDS011;5168;47.854;7.944;2023-11-19T12:40:17;1.50;;;1.40;;
10246;SDS011;5168;47.854;7.944;2023-11-19T12:42:47;1.70;;;1.60;;
10246;SDS011;5168;47.854;7.944;2023-11-19T12:45:13;1.40;;;1.30;;
10246;SDS011;5168;47.854;7.944;2023-11-19T12:47:41;1.57;;;1.47;;
10246;SDS011;5168;47.854;7.944;2023-11-19T12:50:07;1.60;;;1.50;;
10246;SDS011;5168;47.854;7.944;2023-11-19T12:52:34;1.60;;;1.50;;
10246;SDS011;5168;47.854;7.944;2023-11-19T12:55:00;1.67;;;1.57;;
10246;SDS011;5168;47.854;7.944;2023-11-19T12:57:36;1.60;;;1.50;;
10246;SDS011;5168;47.854;7.944;2023-11-19T13:00:06;2.27;;;1.70;;
10246;SDS011;5168;47.854;7.944;2023-11-19T13:02:50;1.90;;;1.80;;
10246;SDS011;5168;47.854;7.944;2023-11-19T13:05:32;1.97;;;1.77;;
10246;SDS011;5168;47.854;7.944;2023-11-19T13:07:59;1.70;;;1.60;;
10246;SDS011;5168;47.854;7.944;2023-11-19T13:10:28;1.70;;;1.60;;
10246;SDS011;5168;47.854;7.944;2023-11-19T13:13:07;2.77;;;1.57;;
10246;SDS011;5168;47.854;7.944;2023-11-19T13:15:33;1.70;;;1.60;;
10246;SDS011;5168;47.854;7.944;2023-11-19T13:18:00;1.87;;;1.73;;
10246;SDS011;5168;47.854;7.944;2023-11-19T13:20:27;1.70;;;1.60;;
10246;SDS011;5168;47.854;7.944;2023-11-19T13:22:59;1.90;;;1.80;;
10246;SDS011;5168;47.854;7.944;2023-11-19T13:25:26;1.60;;;1.50;;
10246;SDS011;5168;47.854;7.944;2023-11-19T13:27:53;2.27;;;1.63;;
10246;SDS011;5168;47.854;7.944;2023-11-19T13:30:19;1.80;;;1.70;;
10246;SDS011;5168;47.854;7.944;2023-11-19T13:32:45;2.03;;;1.50;;
10246;SDS011;5168;47.854;7.944;2023-11-19T13:35:11;1.57;;;1.47;;
10246;SDS011;5168;47.854;7.944;2023-11-19T13:37:37;1.50;;;1.40;;
10246;SDS011;5168;47.854;7.944;2023-11-19T13:40:04;3.23;;;1.60;;
10246;SDS011;5168;47.854;7.944;2023-11-19T13:42:31;1.50;;;1.40;;
10246;SDS011;5168;47.854;7.944;2023-11-19T13:44:57;2.40;;;1.60;;
10246;SDS011;5168;47.854;7.944;2023-11-19T13:47:22;2.80;;;1.73;;
10246;SDS011;5168;47.854;7.944;2023-11-19T13:49:48;2.00;;;1.57;;
10246;SDS011;5168;47.854;7.944;2023-11-19T13:52:14;2.00;;;1.70;;
10246;SDS011;5168;47.854;7.944;2023-11-19T13:54:40;1.63;;;1.50;;
10246;SDS011;5168;47.854;7.944;2023-11-19T13:57:06;1.67;;;1.57;;
10246;SDS011;5168;47.854;7.944;2023-11-19T13:59:31;1.67;;;1.57;;
10246;SDS011;5168;47.854;7.944;2023-11-19T14:01:57;1.67;;;1.53;;
10246;SDS011;5168;47.854;7.944;2023-11-19T14:04:23;2.07;;;1.50;;
10246;SDS011;5168;47.854;7.944;2023-11-19T14:06:50;1.70;;;1.60;;
10246;SDS011;5168;47.854;7.944;2023-11-19T14:09:16;1.67;;;1.57;;
10246;SDS011;5168;47.854;7.944;2023-11-19T14:11:42;1.70;;;1.60;;
10246;SDS011;5168;47.854;7.944;2023-11-19T14:14:08;2.43;;;1.73;;
10246;SDS011;5168;47.854;7.944;2023-11-19T14:16:34;2.40;;;1.70;;
10246;SDS011;5168;47.854;7.944;2023-11-19T14:19:00;2.00;;;1.70;;
10246;SDS011;5168;47.854;7.944;2023-11-19T14:21:25;1.70;;;1.60;;
10246;SDS011;5168;47.854;7.944;2023-11-19T14:23:51;1.70;;;1.60;;
10246;SDS011;5168;47.854;7.944;2023-11-19T14:26:20;4.00;;;1.83;;
10246;SDS011;5168;47.854;7.944;2023-11-19T14:28:46;1.67;;;1.57;;
10246;SDS011;5168;47.854;7.944;2023-11-19T14:31:12;3.77;;;1.90;;
10246;SDS011;5168;47.854;7.944;2023-11-19T14:33:38;1.80;;;1.70;;
10246;SDS011;5168;47.854;7.944;2023-11-19T14:36:04;3.37;;;1.77;;
10246;SDS011;5168;47.854;7.944;2023-11-19T14:38:32;2.00;;;1.80;;
10246;SDS011;5168;47.854;7.944;2023-11-19T14:40:57;4.37;;;2.20;;
10246;SDS011;5168;47.854;7.944;2023-11-19T14:43:24;3.63;;;1.97;;
10246;SDS011;5168;47.854;7.944;2023-11-19T14:45:50;2.63;;;1.90;;
10246;SDS011;5168;47.854;7.944;2023-11-19T14:48:16;4.10;;;2.00;;
10246;SDS011;5168;47.854;7.944;2023-11-19T14:50:45;11.10;;;4.67;;
10246;SDS011;5168;47.854;7.944;2023-11-19T14:53:11;3.13;;;2.43;;
10246;SDS011;5168;47.854;7.944;2023-11-19T14:55:37;3.10;;;2.00;;
10246;SDS011;5168;47.854;7.944;2023-11-19T14:58:03;2.43;;;1.90;;
10246;SDS011;5168;47.854;7.944;2023-11-19T15:00:30;3.13;;;2.40;;
10246;SDS011;5168;47.854;7.944;2023-11-19T15:02:56;3.03;;;2.07;;
10246;SDS011;5168;47.854;7.944;2023-11-19T15:05:22;2.20;;;1.87;;
10246;SDS011;5168;47.854;7.944;2023-11-19T15:07:47;2.70;;;2.07;;
10246;SDS011;5168;47.854;7.944;2023-11-19T15:10:13;3.07;;;1.73;;
10246;SDS011;5168;47.854;7.944;2023-11-19T15:12:39;4.90;;;1.77;;
10246;SDS011;5168;47.854;7.944;2023-11-19T15:15:07;1.80;;;1.70;;